sensor_id;sensor_type;location;lat;lon;timestamp;pressure;altitude;pressure_sealevel;temperature;humidity
74529;BME280;63009;52.584;5.932;2024-02-04T00:00:17;50018.00;;;-144.39;93.54
74529;BME280;63009;52.584;5.932;2024-02-04T00:02:43;50028.03;;;-144.39;93.19
74529;BME280;63009;52.584;5.932;2024-02-04T00:05:08;50011.97;;;-144.39;93.39
74529;BME280;63009;52.584;5.932;2024-02-04T00:07:34;49999.94;;;-144.39;93.48
74529;BME280;63009;52.584;5.932;2024-02-04T00:09:59;50034.03;;;-144.39;93.52
74529;BME280;63009;52.584;5.932;2024-02-04T00:12:25;50015.97;;;-144.39;93.87
74529;BME280;63009;52.584;5.932;2024-02-04T00:14:50;50015.97;;;-144.39;93.64
74529;BME280;63009;52.584;5.932;2024-02-04T00:17:16;50036.03;;;-144.39;93.60
74529;BME280;63009;52.584;5.932;2024-02-04T00:19:42;50046.06;;;-144.39;93.51
74529;BME280;63009;52.584;5.932;2024-02-04T00:22:07;50030.03;;;-144.39;93.57
74529;BME280;63009;52.584;5.932;2024-02-04T00:24:33;50003.94;;;-144.39;93.28
74529;BME280;63009;52.584;5.932;2024-02-04T00:26:58;50022.00;;;-144.39;93.19
74529;BME280;63009;52.584;5.932;2024-02-04T00:29:23;50036.03;;;-144.39;92.97
74529;BME280;63009;52.584;5.932;2024-02-04T00:31:49;50046.06;;;-144.39;92.93
74529;BME280;63009;52.584;5.932;2024-02-04T00:34:14;50024.00;;;-144.39;92.81
74529;BME280;63009;52.584;5.932;2024-02-04T00:36:39;50003.94;;;-144.39;93.01
74529;BME280;63009;52.584;5.932;2024-02-04T00:39:05;50040.06;;;-144.39;92.84
74529;BME280;63009;52.584;5.932;2024-02-04T00:41:32;50003.94;;;-144.39;92.69
74529;BME280;63009;52.584;5.932;2024-02-04T00:43:57;50020.00;;;-144.39;92.66
74529;BME280;63009;52.584;5.932;2024-02-04T00:46:23;50022.00;;;-144.39;92.71
74529;BME280;63009;52.584;5.932;2024-02-04T00:48:48;50040.06;;;-144.39;92.78
74529;BME280;63009;52.584;5.932;2024-02-04T00:51:14;50007.97;;;-144.39;92.49
74529;BME280;63009;52.584;5.932;2024-02-04T00:53:45;50036.03;;;-144.39;92.47
74529;BME280;63009;52.584;5.932;2024-02-04T00:56:10;50032.03;;;-144.39;92.26
74529;BME280;63009;52.584;5.932;2024-02-04T00:58:37;50015.97;;;-144.39;92.19
74529;BME280;63009;52.584;5.932;2024-02-04T01:01:04;50044.06;;;-144.39;92.18
74529;BME280;63009;52.584;5.932;2024-02-04T01:03:31;50038.03;;;-144.39;91.78
74529;BME280;63009;52.584;5.932;2024-02-04T01:05:57;50030.03;;;-144.39;91.41
74529;BME280;63009;52.584;5.932;2024-02-04T01:08:22;50036.03;;;-144.39;91.20
74529;BME280;63009;52.584;5.932;2024-02-04T01:10:48;50009.97;;;-144.39;90.87
74529;BME280;63009;52.584;5.932;2024-02-04T01:13:14;49993.91;;;-144.39;90.87
74529;BME280;63009;52.584;5.932;2024-02-04T01:15:39;50003.94;;;-144.39;90.77
74529;BME280;63009;52.584;5.932;2024-02-04T01:18:05;50003.94;;;-144.39;90.70
74529;BME280;63009;52.584;5.932;2024-02-04T01:20:30;50015.97;;;-144.39;90.67
74529;BME280;63009;52.584;5.932;2024-02-04T01:22:56;50026.00;;;-144.39;90.45
74529;BME280;63009;52.584;5.932;2024-02-04T01:25:21;50018.00;;;-144.39;90.56
74529;BME280;63009;52.584;5.932;2024-02-04T01:27:46;50032.03;;;-144.39;90.66
74529;BME280;63009;52.584;5.932;2024-02-04T01:30:12;50044.06;;;-144.39;90.62
74529;BME280;63009;52.584;5.932;2024-02-04T01:32:37;50040.06;;;-144.39;89.96
74529;BME280;63009;52.584;5.932;2024-02-04T01:35:03;50038.03;;;-144.39;89.76
74529;BME280;63009;52.584;5.932;2024-02-04T01:37:28;50022.00;;;-144.39;90.12
74529;BME280;63009;52.584;5.932;2024-02-04T01:39:54;50022.00;;;-144.39;89.80
74529;BME280;63009;52.584;5.932;2024-02-04T01:42:19;50026.00;;;-144.39;90.18
74529;BME280;63009;52.584;5.932;2024-02-04T01:44:44;50054.09;;;-144.39;90.50
74529;BME280;63009;52.584;5.932;2024-02-04T01:47:10;50058.09;;;-144.39;90.85
74529;BME280;63009;52.584;5.932;2024-02-04T01:49:35;50072.16;;;-144.39;91.17
74529;BME280;63009;52.584;5.932;2024-02-04T01:52:02;50022.00;;;-144.39;91.26
74529;BME280;63009;52.584;5.932;2024-02-04T01:54:31;50036.03;;;-144.39;91.15
74529;BME280;63009;52.584;5.932;2024-02-04T01:56:58;50038.03;;;-144.39;91.15
74529;BME280;63009;52.584;5.932;2024-02-04T01:59:23;50015.97;;;-144.39;90.65
74529;BME280;63009;52.584;5.932;2024-02-04T02:01:59;50060.09;;;-144.39;90.35
74529;BME280;63009;52.584;5.932;2024-02-04T02:04:25;50040.06;;;-144.39;90.36
74529;BME280;63009;52.584;5.932;2024-02-04T02:06:53;50040.06;;;-144.39;89.93
74529;BME280;63009;52.584;5.932;2024-02-04T02:09:19;50038.03;;;-144.39;90.14
74529;BME280;63009;52.584;5.932;2024-02-04T02:11:47;50048.06;;;-144.39;89.62
74529;BME280;63009;52.584;5.932;2024-02-04T02:14:15;50034.03;;;-144.39;89.40
74529;BME280;63009;52.584;5.932;2024-02-04T02:16:44;50048.06;;;-144.39;88.93
74529;BME280;63009;52.584;5.932;2024-02-04T02:22:04;50034.03;;;-144.39;87.91
74529;BME280;63009;52.584;5.932;2024-02-04T02:24:35;50024.00;;;-144.39;88.02
74529;BME280;63009;52.584;5.932;2024-02-04T02:27:04;50038.03;;;-144.39;87.99
74529;BME280;63009;52.584;5.932;2024-02-04T02:29:30;50028.03;;;-144.39;87.55
74529;BME280;63009;52.584;5.932;2024-02-04T02:31:57;50066.13;;;-144.39;87.13
74529;BME280;63009;52.584;5.932;2024-02-04T02:34:23;50044.06;;;-144.39;86.87
74529;BME280;63009;52.584;5.932;2024-02-04T02:39:35;50013.97;;;-144.39;85.95
74529;BME280;63009;52.584;5.932;2024-02-04T02:42:04;50060.09;;;-144.39;85.45
74529;BME280;63009;52.584;5.932;2024-02-04T02:44:30;50026.00;;;-144.39;85.27
74529;BME280;63009;52.584;5.932;2024-02-04T02:46:57;50052.09;;;-144.39;85.00
74529;BME280;63009;52.584;5.932;2024-02-04T02:49:23;50040.06;;;-144.39;84.68
74529;BME280;63009;52.584;5.932;2024-02-04T02:51:49;49999.94;;;-144.39;84.52
74529;BME280;63009;52.584;5.932;2024-02-04T02:54:14;50011.97;;;-144.39;84.42
74529;BME280;63009;52.584;5.932;2024-02-04T02:56:39;50042.06;;;-144.39;84.02
74529;BME280;63009;52.584;5.932;2024-02-04T02:59:05;49991.91;;;-144.39;84.07
74529;BME280;63009;52.584;5.932;2024-02-04T03:01:30;50044.06;;;-144.39;84.12
74529;BME280;63009;52.584;5.932;2024-02-04T03:03:56;50032.03;;;-144.39;84.34
74529;BME280;63009;52.584;5.932;2024-02-04T03:06:21;50050.09;;;-144.39;84.49
74529;BME280;63009;52.584;5.932;2024-02-04T03:08:47;50018.00;;;-144.39;84.63
74529;BME280;63009;52.584;5.932;2024-02-04T03:11:12;50048.06;;;-144.39;84.81
74529;BME280;63009;52.584;5.932;2024-02-04T03:13:38;50056.09;;;-144.39;85.02
74529;BME280;63009;52.584;5.932;2024-02-04T03:16:04;50060.09;;;-144.39;85.12
74529;BME280;63009;52.584;5.932;2024-02-04T03:18:30;50022.00;;;-144.39;85.46
74529;BME280;63009;52.584;5.932;2024-02-04T03:20:55;50030.03;;;-144.39;85.65
74529;BME280;63009;52.584;5.932;2024-02-04T03:23:20;50018.00;;;-144.39;85.76
74529;BME280;63009;52.584;5.932;2024-02-04T03:25:46;50054.09;;;-144.39;85.54
74529;BME280;63009;52.584;5.932;2024-02-04T03:28:11;50015.97;;;-144.39;85.56
74529;BME280;63009;52.584;5.932;2024-02-04T03:30:37;50044.06;;;-144.39;85.52
74529;BME280;63009;52.584;5.932;2024-02-04T03:33:02;50026.00;;;-144.39;85.54
74529;BME280;63009;52.584;5.932;2024-02-04T03:35:27;50052.09;;;-144.39;85.84
74529;BME280;63009;52.584;5.932;2024-02-04T03:37:53;50056.09;;;-144.39;85.54
74529;BME280;63009;52.584;5.932;2024-02-04T03:40:18;50013.97;;;-144.39;85.75
74529;BME280;63009;52.584;5.932;2024-02-04T03:42:46;50015.97;;;-144.39;85.90
74529;BME280;63009;52.584;5.932;2024-02-04T03:45:11;50024.00;;;-144.39;86.05
74529;BME280;63009;52.584;5.932;2024-02-04T03:47:37;50034.03;;;-144.39;85.93
74529;BME280;63009;52.584;5.932;2024-02-04T03:50:02;50046.06;;;-144.39;85.78
74529;BME280;63009;52.584;5.932;2024-02-04T03:52:29;50011.97;;;-144.39;85.27
74529;BME280;63009;52.584;5.932;2024-02-04T03:54:54;50040.06;;;-144.39;85.06
74529;BME280;63009;52.584;5.932;2024-02-04T03:57:19;50030.03;;;-144.39;85.12
74529;BME280;63009;52.584;5.932;2024-02-04T03:59:45;50038.03;;;-144.39;85.46
74529;BME280;63009;52.584;5.932;2024-02-04T04:02:13;50038.03;;;-144.39;84.86
74529;BME280;63009;52.584;5.932;2024-02-04T04:04:40;50018.00;;;-144.39;85.17
74529;BME280;63009;52.584;5.932;2024-02-04T04:07:06;50050.09;;;-144.39;84.70
74529;BME280;63009;52.584;5.932;2024-02-04T04:09:32;50048.06;;;-144.39;84.42
74529;BME280;63009;52.584;5.932;2024-02-04T04:11:57;50011.97;;;-144.39;84.06
74529;BME280;63009;52.584;5.932;2024-02-04T04:14:22;50046.06;;;-144.39;82.99
74529;BME280;63009;52.584;5.932;2024-02-04T04:16:48;50011.97;;;-144.39;82.82
74529;BME280;63009;52.584;5.932;2024-02-04T04:19:13;50018.00;;;-144.39;82.43
74529;BME280;63009;52.584;5.932;2024-02-04T04:21:38;50022.00;;;-144.39;82.57
74529;BME280;63009;52.584;5.932;2024-02-04T04:24:05;50030.03;;;-144.39;82.03
74529;BME280;63009;52.584;5.932;2024-02-04T04:26:30;50042.06;;;-144.39;81.72
74529;BME280;63009;52.584;5.932;2024-02-04T04:28:56;50036.03;;;-144.39;82.44
74529;BME280;63009;52.584;5.932;2024-02-04T04:31:22;50032.03;;;-144.39;82.62
74529;BME280;63009;52.584;5.932;2024-02-04T04:33:47;50028.03;;;-144.39;82.63
74529;BME280;63009;52.584;5.932;2024-02-04T04:36:13;49997.94;;;-144.39;82.75
74529;BME280;63009;52.584;5.932;2024-02-04T04:38:38;50015.97;;;-144.39;82.82
74529;BME280;63009;52.584;5.932;2024-02-04T04:41:03;50003.94;;;-144.39;82.43
74529;BME280;63009;52.584;5.932;2024-02-04T04:43:29;50032.03;;;-144.39;82.81
74529;BME280;63009;52.584;5.932;2024-02-04T04:45:54;50044.06;;;-144.39;82.95
74529;BME280;63009;52.584;5.932;2024-02-04T04:48:20;50015.97;;;-144.39;82.51
74529;BME280;63009;52.584;5.932;2024-02-04T04:50:45;50036.03;;;-144.39;82.63
74529;BME280;63009;52.584;5.932;2024-02-04T04:53:11;50026.00;;;-144.39;82.50
74529;BME280;63009;52.584;5.932;2024-02-04T04:55:36;50040.06;;;-144.39;82.69
74529;BME280;63009;52.584;5.932;2024-02-04T04:58:02;50046.06;;;-144.39;82.69
74529;BME280;63009;52.584;5.932;2024-02-04T05:00:28;50024.00;;;-144.39;82.65
74529;BME280;63009;52.584;5.932;2024-02-04T05:02:53;50007.97;;;-144.39;82.56
74529;BME280;63009;52.584;5.932;2024-02-04T05:05:19;50074.16;;;-144.39;82.39
74529;BME280;63009;52.584;5.932;2024-02-04T05:07:44;50032.03;;;-144.39;81.93
74529;BME280;63009;52.584;5.932;2024-02-04T05:10:12;50054.09;;;-144.39;81.35
74529;BME280;63009;52.584;5.932;2024-02-04T05:12:37;50048.06;;;-144.39;80.99
74529;BME280;63009;52.584;5.932;2024-02-04T05:15:06;50038.03;;;-144.39;80.23
74529;BME280;63009;52.584;5.932;2024-02-04T05:17:31;50046.06;;;-144.39;79.89
74529;BME280;63009;52.584;5.932;2024-02-04T05:19:58;50011.97;;;-144.39;78.99
74529;BME280;63009;52.584;5.932;2024-02-04T05:22:23;50050.09;;;-144.39;79.05
74529;BME280;63009;52.584;5.932;2024-02-04T05:24:49;49983.91;;;-144.39;78.78
74529;BME280;63009;52.584;5.932;2024-02-04T05:27:14;50028.03;;;-144.39;79.06
74529;BME280;63009;52.584;5.932;2024-02-04T05:29:40;50007.97;;;-144.39;78.40
74529;BME280;63009;52.584;5.932;2024-02-04T05:32:05;50024.00;;;-144.39;78.44
74529;BME280;63009;52.584;5.932;2024-02-04T05:34:31;50038.03;;;-144.39;77.80
74529;BME280;63009;52.584;5.932;2024-02-04T05:36:59;50013.97;;;-144.39;77.23
74529;BME280;63009;52.584;5.932;2024-02-04T05:39:24;50007.97;;;-144.39;77.15
74529;BME280;63009;52.584;5.932;2024-02-04T05:41:50;50034.03;;;-144.39;76.76
74529;BME280;63009;52.584;5.932;2024-02-04T05:44:15;50044.06;;;-144.39;76.60
74529;BME280;63009;52.584;5.932;2024-02-04T05:46:41;50028.03;;;-144.39;76.51
74529;BME280;63009;52.584;5.932;2024-02-04T05:49:06;50074.16;;;-144.39;76.65
74529;BME280;63009;52.584;5.932;2024-02-04T05:51:37;50050.09;;;-144.39;76.51
74529;BME280;63009;52.584;5.932;2024-02-04T05:54:02;50026.00;;;-144.39;76.66
74529;BME280;63009;52.584;5.932;2024-02-04T05:56:28;50022.00;;;-144.39;76.47
74529;BME280;63009;52.584;5.932;2024-02-04T05:58:53;50040.06;;;-144.39;76.93
74529;BME280;63009;52.584;5.932;2024-02-04T06:01:19;50024.00;;;-144.39;76.22
74529;BME280;63009;52.584;5.932;2024-02-04T06:03:44;50052.09;;;-144.39;76.38
74529;BME280;63009;52.584;5.932;2024-02-04T06:06:14;50024.00;;;-144.39;76.36
74529;BME280;63009;52.584;5.932;2024-02-04T06:08:41;49985.91;;;-144.39;76.27
74529;BME280;63009;52.584;5.932;2024-02-04T06:11:10;50040.06;;;-144.39;76.09
74529;BME280;63009;52.584;5.932;2024-02-04T06:13:35;50015.97;;;-144.39;76.04
74529;BME280;63009;52.584;5.932;2024-02-04T06:16:01;50013.97;;;-144.39;76.29
74529;BME280;63009;52.584;5.932;2024-02-04T06:18:26;50020.00;;;-144.39;76.44
74529;BME280;63009;52.584;5.932;2024-02-04T06:20:52;50020.00;;;-144.39;76.75
74529;BME280;63009;52.584;5.932;2024-02-04T06:23:17;50028.03;;;-144.39;76.45
74529;BME280;63009;52.584;5.932;2024-02-04T06:25:44;50020.00;;;-144.39;75.66
74529;BME280;63009;52.584;5.932;2024-02-04T06:28:10;50030.03;;;-144.39;75.81
74529;BME280;63009;52.584;5.932;2024-02-04T06:30:36;50028.03;;;-144.39;75.87
74529;BME280;63009;52.584;5.932;2024-02-04T06:33:01;50015.97;;;-144.39;75.59
74529;BME280;63009;52.584;5.932;2024-02-04T06:35:28;49997.94;;;-144.39;75.45
74529;BME280;63009;52.584;5.932;2024-02-04T06:37:53;50011.97;;;-144.39;75.17
74529;BME280;63009;52.584;5.932;2024-02-04T06:40:18;49987.91;;;-144.39;75.02
74529;BME280;63009;52.584;5.932;2024-02-04T06:42:44;50038.03;;;-144.39;75.38
74529;BME280;63009;52.584;5.932;2024-02-04T06:45:09;50015.97;;;-144.39;74.90
74529;BME280;63009;52.584;5.932;2024-02-04T06:47:35;50040.06;;;-144.39;75.32
74529;BME280;63009;52.584;5.932;2024-02-04T06:50:00;50040.06;;;-144.39;74.55
74529;BME280;63009;52.584;5.932;2024-02-04T06:52:28;50022.00;;;-144.39;75.13
74529;BME280;63009;52.584;5.932;2024-02-04T06:54:53;50026.00;;;-144.39;75.59
74529;BME280;63009;52.584;5.932;2024-02-04T06:57:19;50007.97;;;-144.39;75.67
74529;BME280;63009;52.584;5.932;2024-02-04T06:59:44;50026.00;;;-144.39;76.40
74529;BME280;63009;52.584;5.932;2024-02-04T07:02:09;50015.97;;;-144.39;76.69
74529;BME280;63009;52.584;5.932;2024-02-04T07:04:35;50028.03;;;-144.39;77.34
74529;BME280;63009;52.584;5.932;2024-02-04T07:07:00;50058.09;;;-144.39;77.57
74529;BME280;63009;52.584;5.932;2024-02-04T07:09:26;50060.09;;;-144.39;77.38
74529;BME280;63009;52.584;5.932;2024-02-04T07:11:51;50034.03;;;-144.39;77.85
74529;BME280;63009;52.584;5.932;2024-02-04T07:14:16;50026.00;;;-144.39;77.88
74529;BME280;63009;52.584;5.932;2024-02-04T07:16:42;50058.09;;;-144.39;78.12
74529;BME280;63009;52.584;5.932;2024-02-04T07:19:07;50015.97;;;-144.39;78.18
74529;BME280;63009;52.584;5.932;2024-02-04T07:21:33;50030.03;;;-144.39;78.39
74529;BME280;63009;52.584;5.932;2024-02-04T07:23:58;50038.03;;;-144.39;78.40
74529;BME280;63009;52.584;5.932;2024-02-04T07:26:24;50044.06;;;-144.39;78.60
74529;BME280;63009;52.584;5.932;2024-02-04T07:28:49;50030.03;;;-144.39;79.11
74529;BME280;63009;52.584;5.932;2024-02-04T07:31:15;50040.06;;;-144.39;79.09
74529;BME280;63009;52.584;5.932;2024-02-04T07:33:40;50026.00;;;-144.39;79.41
74529;BME280;63009;52.584;5.932;2024-02-04T07:36:06;50003.94;;;-144.39;79.23
74529;BME280;63009;52.584;5.932;2024-02-04T07:38:31;50056.09;;;-144.39;79.42
74529;BME280;63009;52.584;5.932;2024-02-04T07:40:56;50022.00;;;-144.39;79.43
74529;BME280;63009;52.584;5.932;2024-02-04T07:43:24;50018.00;;;-144.39;79.39
74529;BME280;63009;52.584;5.932;2024-02-04T07:45:50;50028.03;;;-144.39;79.63
74529;BME280;63009;52.584;5.932;2024-02-04T07:48:16;50020.00;;;-144.39;79.77
74529;BME280;63009;52.584;5.932;2024-02-04T07:50:41;50042.06;;;-144.39;79.57
74529;BME280;63009;52.584;5.932;2024-02-04T07:53:07;50001.94;;;-144.39;79.66
74529;BME280;63009;52.584;5.932;2024-02-04T07:55:32;50005.97;;;-144.39;79.20
74529;BME280;63009;52.584;5.932;2024-02-04T07:57:57;50030.03;;;-144.39;79.34
74529;BME280;63009;52.584;5.932;2024-02-04T08:00:23;50022.00;;;-144.39;78.74
74529;BME280;63009;52.584;5.932;2024-02-04T08:02:48;50024.00;;;-144.39;78.89
74529;BME280;63009;52.584;5.932;2024-02-04T08:05:14;50054.09;;;-144.39;78.74
74529;BME280;63009;52.584;5.932;2024-02-04T08:07:39;50003.94;;;-144.39;78.03
74529;BME280;63009;52.584;5.932;2024-02-04T08:10:06;50013.97;;;-144.39;77.64
74529;BME280;63009;52.584;5.932;2024-02-04T08:12:32;50046.06;;;-144.39;77.01
74529;BME280;63009;52.584;5.932;2024-02-04T08:14:57;50028.03;;;-144.39;77.03
74529;BME280;63009;52.584;5.932;2024-02-04T08:17:23;50030.03;;;-144.39;75.81
74529;BME280;63009;52.584;5.932;2024-02-04T08:19:48;50032.03;;;-144.39;75.98
74529;BME280;63009;52.584;5.932;2024-02-04T08:22:14;50015.97;;;-144.39;75.92
74529;BME280;63009;52.584;5.932;2024-02-04T08:24:39;50032.03;;;-144.39;75.85
74529;BME280;63009;52.584;5.932;2024-02-04T08:27:05;50044.06;;;-144.39;75.91
74529;BME280;63009;52.584;5.932;2024-02-04T08:29:30;50044.06;;;-144.39;75.83
74529;BME280;63009;52.584;5.932;2024-02-04T08:31:56;50042.06;;;-144.39;76.23
74529;BME280;63009;52.584;5.932;2024-02-04T08:34:21;50015.97;;;-144.39;76.13
74529;BME280;63009;52.584;5.932;2024-02-04T08:36:49;50011.97;;;-144.39;75.81
74529;BME280;63009;52.584;5.932;2024-02-04T08:39:15;50034.03;;;-144.39;76.42
74529;BME280;63009;52.584;5.932;2024-02-04T08:41:41;50032.03;;;-144.39;76.64
74529;BME280;63009;52.584;5.932;2024-02-04T08:44:06;50028.03;;;-144.39;76.94
74529;BME280;63009;52.584;5.932;2024-02-04T08:46:32;50030.03;;;-144.39;77.66
74529;BME280;63009;52.584;5.932;2024-02-04T08:48:57;50028.03;;;-144.39;78.23
74529;BME280;63009;52.584;5.932;2024-02-04T08:51:22;50042.06;;;-144.39;78.62
74529;BME280;63009;52.584;5.932;2024-02-04T08:53:48;50026.00;;;-144.39;79.33
74529;BME280;63009;52.584;5.932;2024-02-04T08:56:13;50034.03;;;-144.39;79.47
74529;BME280;63009;52.584;5.932;2024-02-04T08:58:39;50052.09;;;-144.39;79.03
74529;BME280;63009;52.584;5.932;2024-02-04T09:01:05;50032.03;;;-144.39;79.36
74529;BME280;63009;52.584;5.932;2024-02-04T09:03:30;50044.06;;;-144.39;79.76
74529;BME280;63009;52.584;5.932;2024-02-04T09:05:57;50038.03;;;-144.39;80.10
74529;BME280;63009;52.584;5.932;2024-02-04T09:08:22;50036.03;;;-144.39;80.45
74529;BME280;63009;52.584;5.932;2024-02-04T09:10:47;50022.00;;;-144.39;80.65
74529;BME280;63009;52.584;5.932;2024-02-04T09:13:13;50009.97;;;-144.39;80.95
74529;BME280;63009;52.584;5.932;2024-02-04T09:15:38;50020.00;;;-144.39;81.97
74529;BME280;63009;52.584;5.932;2024-02-04T09:18:04;50007.97;;;-144.39;82.20
74529;BME280;63009;52.584;5.932;2024-02-04T09:20:29;50068.13;;;-144.39;81.44
74529;BME280;63009;52.584;5.932;2024-02-04T09:22:55;50018.00;;;-144.39;81.34
74529;BME280;63009;52.584;5.932;2024-02-04T09:25:20;50024.00;;;-144.39;81.05
74529;BME280;63009;52.584;5.932;2024-02-04T09:27:45;50046.06;;;-144.39;81.11
74529;BME280;63009;52.584;5.932;2024-02-04T09:30:11;50038.03;;;-144.39;81.06
74529;BME280;63009;52.584;5.932;2024-02-04T09:32:37;50036.03;;;-144.39;81.13
74529;BME280;63009;52.584;5.932;2024-02-04T09:35:03;50028.03;;;-144.39;81.21
74529;BME280;63009;52.584;5.932;2024-02-04T09:37:28;50003.94;;;-144.39;81.35
74529;BME280;63009;52.584;5.932;2024-02-04T09:39:54;50007.97;;;-144.39;81.80
74529;BME280;63009;52.584;5.932;2024-02-04T09:42:21;50005.97;;;-144.39;81.99
74529;BME280;63009;52.584;5.932;2024-02-04T09:44:49;50011.97;;;-144.39;82.53
74529;BME280;63009;52.584;5.932;2024-02-04T09:47:15;49999.94;;;-144.39;82.63
74529;BME280;63009;52.584;5.932;2024-02-04T09:49:42;50015.97;;;-144.39;82.67
74529;BME280;63009;52.584;5.932;2024-02-04T09:52:09;50042.06;;;-144.39;82.69
74529;BME280;63009;52.584;5.932;2024-02-04T09:54:57;50024.00;;;-144.39;82.63
74529;BME280;63009;52.584;5.932;2024-02-04T09:57:24;50024.00;;;-144.39;82.75
74529;BME280;63009;52.584;5.932;2024-02-04T09:59:49;50018.00;;;-144.39;82.47
74529;BME280;63009;52.584;5.932;2024-02-04T10:02:15;50024.00;;;-144.39;83.26
74529;BME280;63009;52.584;5.932;2024-02-04T10:04:40;50015.97;;;-144.39;83.17
74529;BME280;63009;52.584;5.932;2024-02-04T10:07:06;50044.06;;;-144.39;83.21
74529;BME280;63009;52.584;5.932;2024-02-04T10:09:32;50018.00;;;-144.39;83.21
74529;BME280;63009;52.584;5.932;2024-02-04T10:11:57;49987.91;;;-144.39;83.41
74529;BME280;63009;52.584;5.932;2024-02-04T10:14:23;50003.94;;;-144.39;83.68
74529;BME280;63009;52.584;5.932;2024-02-04T10:16:49;50034.03;;;-144.39;84.68
74529;BME280;63009;52.584;5.932;2024-02-04T10:19:14;50011.97;;;-144.39;84.51
74529;BME280;63009;52.584;5.932;2024-02-04T10:21:40;50013.97;;;-144.39;84.70
74529;BME280;63009;52.584;5.932;2024-02-04T10:24:06;50005.97;;;-144.39;84.70
74529;BME280;63009;52.584;5.932;2024-02-04T10:26:31;50020.00;;;-144.39;84.97
74529;BME280;63009;52.584;5.932;2024-02-04T10:28:59;50024.00;;;-144.39;85.01
74529;BME280;63009;52.584;5.932;2024-02-04T10:31:25;50032.03;;;-144.39;84.90
74529;BME280;63009;52.584;5.932;2024-02-04T10:33:51;50013.97;;;-144.39;84.83
74529;BME280;63009;52.584;5.932;2024-02-04T10:36:17;50030.03;;;-144.39;85.35
74529;BME280;63009;52.584;5.932;2024-02-04T10:38:42;50054.09;;;-144.39;86.00
74529;BME280;63009;52.584;5.932;2024-02-04T10:41:14;50001.94;;;-144.39;86.17
74529;BME280;63009;52.584;5.932;2024-02-04T10:43:42;50038.03;;;-144.39;85.90
74529;BME280;63009;52.584;5.932;2024-02-04T10:46:19;50020.00;;;-144.39;85.65
74529;BME280;63009;52.584;5.932;2024-02-04T10:48:57;50028.03;;;-144.39;85.43
74529;BME280;63009;52.584;5.932;2024-02-04T10:51:26;50015.97;;;-144.39;85.02
74529;BME280;63009;52.584;5.932;2024-02-04T10:53:53;50046.06;;;-144.39;85.06
74529;BME280;63009;52.584;5.932;2024-02-04T10:56:36;50042.06;;;-144.39;84.19
74529;BME280;63009;52.584;5.932;2024-02-04T10:59:02;50030.03;;;-144.39;83.60
74529;BME280;63009;52.584;5.932;2024-02-04T11:01:29;50034.03;;;-144.39;83.32
74529;BME280;63009;52.584;5.932;2024-02-04T11:03:54;50046.06;;;-144.39;83.16
74529;BME280;63009;52.584;5.932;2024-02-04T11:06:22;50030.03;;;-144.39;82.65
74529;BME280;63009;52.584;5.932;2024-02-04T11:08:48;50005.97;;;-144.39;82.37
74529;BME280;63009;52.584;5.932;2024-02-04T11:11:14;50040.06;;;-144.39;81.63
74529;BME280;63009;52.584;5.932;2024-02-04T11:13:43;50030.03;;;-144.39;80.84
74529;BME280;63009;52.584;5.932;2024-02-04T11:19:08;50015.97;;;-144.39;81.17
74529;BME280;63009;52.584;5.932;2024-02-04T11:24:25;50022.00;;;-144.39;81.44
74529;BME280;63009;52.584;5.932;2024-02-04T11:26:56;50022.00;;;-144.39;80.91
74529;BME280;63009;52.584;5.932;2024-02-04T11:29:22;50036.03;;;-144.39;80.39
74529;BME280;63009;52.584;5.932;2024-02-04T11:31:48;50048.06;;;-144.39;79.89
74529;BME280;63009;52.584;5.932;2024-02-04T11:34:13;50005.97;;;-144.39;80.14
74529;BME280;63009;52.584;5.932;2024-02-04T11:36:39;50020.00;;;-144.39;80.38
74529;BME280;63009;52.584;5.932;2024-02-04T11:39:18;50036.03;;;-144.39;79.93
74529;BME280;63009;52.584;5.932;2024-02-04T11:41:48;49999.94;;;-144.39;79.61
74529;BME280;63009;52.584;5.932;2024-02-04T11:44:21;50007.97;;;-144.39;79.66
74529;BME280;63009;52.584;5.932;2024-02-04T11:46:47;50013.97;;;-144.39;80.43
74529;BME280;63009;52.584;5.932;2024-02-04T11:49:16;49997.94;;;-144.39;80.99
74529;BME280;63009;52.584;5.932;2024-02-04T11:51:45;50018.00;;;-144.39;81.63
74529;BME280;63009;52.584;5.932;2024-02-04T11:54:10;50007.97;;;-144.39;82.03
74529;BME280;63009;52.584;5.932;2024-02-04T11:56:38;50058.09;;;-144.39;82.38
74529;BME280;63009;52.584;5.932;2024-02-04T11:59:05;49991.91;;;-144.39;82.46
74529;BME280;63009;52.584;5.932;2024-02-04T12:01:31;50044.06;;;-144.39;81.74
74529;BME280;63009;52.584;5.932;2024-02-04T12:04:09;49989.91;;;-144.39;81.33
74529;BME280;63009;52.584;5.932;2024-02-04T12:06:34;50036.03;;;-144.39;81.05
74529;BME280;63009;52.584;5.932;2024-02-04T12:09:01;50044.06;;;-144.39;81.63
74529;BME280;63009;52.584;5.932;2024-02-04T12:11:27;50020.00;;;-144.39;81.91
74529;BME280;63009;52.584;5.932;2024-02-04T12:13:54;50062.13;;;-144.39;82.65
74529;BME280;63009;52.584;5.932;2024-02-04T12:16:21;50052.09;;;-144.39;82.51
74529;BME280;63009;52.584;5.932;2024-02-04T12:18:50;50013.97;;;-144.39;83.24
74529;BME280;63009;52.584;5.932;2024-02-04T12:21:15;50015.97;;;-144.39;83.51
74529;BME280;63009;52.584;5.932;2024-02-04T12:23:41;50022.00;;;-144.39;83.83
74529;BME280;63009;52.584;5.932;2024-02-04T12:26:06;50018.00;;;-144.39;83.85
74529;BME280;63009;52.584;5.932;2024-02-04T12:28:32;50015.97;;;-144.39;84.55
74529;BME280;63009;52.584;5.932;2024-02-04T12:30:57;50011.97;;;-144.39;84.59
74529;BME280;63009;52.584;5.932;2024-02-04T12:33:24;50011.97;;;-144.39;84.37
74529;BME280;63009;52.584;5.932;2024-02-04T12:35:52;50046.06;;;-144.39;83.68
74529;BME280;63009;52.584;5.932;2024-02-04T12:38:18;50007.97;;;-144.39;83.94
74529;BME280;63009;52.584;5.932;2024-02-04T12:40:43;50030.03;;;-144.39;83.84
74529;BME280;63009;52.584;5.932;2024-02-04T12:43:11;50003.94;;;-144.39;83.87
74529;BME280;63009;52.584;5.932;2024-02-04T12:45:37;50018.00;;;-144.39;83.09